createdAt,value
2022-12-28T00:01:44.439Z,87.20
2022-12-28T00:04:15.594Z,85.72
2022-12-28T00:06:43.252Z,86.15
2022-12-28T00:09:13.170Z,85.51
2022-12-28T00:11:40.593Z,86.38
2022-12-28T00:14:08.561Z,86.21
2022-12-28T00:16:38.438Z,86.70
2022-12-28T00:19:10.388Z,86.46
2022-12-28T00:21:37.859Z,85.86
2022-12-28T00:24:05.527Z,86.45
2022-12-28T00:26:34.591Z,86.90
2022-12-28T00:29:05.145Z,86.83
2022-12-28T00:31:34.210Z,87.21
2022-12-28T00:34:02.697Z,86.15
2022-12-28T00:37:09.377Z,86.30
2022-12-28T00:39:19.096Z,86.56
2022-12-28T00:41:47.005Z,86.62
2022-12-28T00:44:14.250Z,86.60
2022-12-28T00:46:41.591Z,86.66
2022-12-28T00:49:08.549Z,86.61
2022-12-28T00:51:35.816Z,86.41
2022-12-28T00:54:02.766Z,86.05
2022-12-28T00:56:30.039Z,86.63
2022-12-28T00:58:59.176Z,86.71
2022-12-28T01:01:28.097Z,86.38
2022-12-28T01:03:59.016Z,86.10
2022-12-28T01:06:27.462Z,86.67
2022-12-28T01:08:55.028Z,86.84
2022-12-28T01:11:27.572Z,87.22
2022-12-28T01:13:57.269Z,87.26
2022-12-28T01:16:30.415Z,87.11
2022-12-28T01:18:59.606Z,87.26
2022-12-28T01:21:30.827Z,87.43
2022-12-28T01:24:00.575Z,87.65
2022-12-28T01:26:28.892Z,87.80
2022-12-28T01:28:57.781Z,87.83
2022-12-28T01:31:25.099Z,87.40
2022-12-28T01:33:52.211Z,87.51
2022-12-28T01:36:25.349Z,87.51
2022-12-28T01:38:57.678Z,88.12
2022-12-28T01:41:27.176Z,87.95
2022-12-28T01:43:54.048Z,88.21
2022-12-28T01:46:35.024Z,87.71
2022-12-28T01:49:19.803Z,88.24
2022-12-28T01:51:53.947Z,88.18
2022-12-28T01:54:23.494Z,88.13
2022-12-28T01:56:51.989Z,88.03
2022-12-28T01:59:22.129Z,88.04
2022-12-28T02:01:51.127Z,88.58
2022-12-28T02:04:18.183Z,88.38
2022-12-28T02:06:47.141Z,88.20
2022-12-28T02:09:19.617Z,88.50
2022-12-28T02:11:48.518Z,88.58
2022-12-28T02:14:16.323Z,88.45
2022-12-28T02:16:44.086Z,88.58
2022-12-28T02:19:18.181Z,88.20
2022-12-28T02:22:19.814Z,88.18
2022-12-28T02:25:24.212Z,88.57
2022-12-28T02:28:06.752Z,89.03
2022-12-28T02:30:40.078Z,88.61
2022-12-28T02:33:32.605Z,89.05
2022-12-28T02:36:12.991Z,88.94
2022-12-28T02:38:54.047Z,89.13
2022-12-28T02:41:24.740Z,89.13
2022-12-28T02:43:53.793Z,89.23
2022-12-28T02:46:39.364Z,89.61
2022-12-28T02:49:40.456Z,89.58
2022-12-28T02:52:22.613Z,89.84
2022-12-28T02:55:17.738Z,89.65
2022-12-28T02:57:50.598Z,90.28
2022-12-28T03:00:24.321Z,91.06
2022-12-28T03:03:10.220Z,91.13
2022-12-28T03:06:09.334Z,91.44
2022-12-28T03:09:27.772Z,92.09
2022-12-28T03:12:04.506Z,92.22
2022-12-28T03:14:46.840Z,92.37
2022-12-28T03:17:35.173Z,92.47
2022-12-28T03:20:26.449Z,92.47
2022-12-28T03:23:14.603Z,93.02
2022-12-28T03:26:03.497Z,93.81
2022-12-28T03:28:58.445Z,93.51
2022-12-28T03:31:29.327Z,94.01
2022-12-28T03:34:08.811Z,94.24
2022-12-28T03:36:52.213Z,94.28
2022-12-28T03:39:58.302Z,94.64
2022-12-28T03:42:48.815Z,94.93
2022-12-28T03:45:45.829Z,95.37
2022-12-28T03:48:13.322Z,95.31
2022-12-28T03:50:44.320Z,95.22
2022-12-28T03:53:14.556Z,94.88
2022-12-28T03:55:43.435Z,95.16
2022-12-28T03:58:10.647Z,95.39
2022-12-28T04:00:38.740Z,95.65
2022-12-28T04:03:07.741Z,95.64
2022-12-28T04:05:35.661Z,96.04
2022-12-28T04:08:02.578Z,96.26
2022-12-28T04:10:29.838Z,95.90
2022-12-28T04:12:57.120Z,96.31
2022-12-28T04:15:37.795Z,96.53
2022-12-28T04:18:04.960Z,96.62
2022-12-28T04:20:33.040Z,96.55
2022-12-28T04:23:01.444Z,96.71
2022-12-28T04:25:28.717Z,97.18
2022-12-28T04:27:56.248Z,97.26
2022-12-28T04:30:49.420Z,97.65
2022-12-28T04:33:16.633Z,97.77
2022-12-28T04:35:47.293Z,97.92
2022-12-28T04:38:14.617Z,97.75
2022-12-28T04:40:42.181Z,98.24
2022-12-28T04:43:09.386Z,98.16
2022-12-28T04:45:36.746Z,98.15
2022-12-28T04:48:04.174Z,98.64
2022-12-28T04:50:31.404Z,98.60
2022-12-28T04:52:59.303Z,98.86
2022-12-28T04:55:32.597Z,98.63
2022-12-28T04:58:00.833Z,99.05
2022-12-28T05:00:28.080Z,99.13
2022-12-28T05:02:58.956Z,99.13
2022-12-28T05:05:27.889Z,99.48
2022-12-28T05:07:55.114Z,99.01
2022-12-28T05:10:22.419Z,99.56
2022-12-28T05:12:49.268Z,99.52
2022-12-28T05:15:16.481Z,99.46
2022-12-28T05:17:43.299Z,99.79
2022-12-28T05:20:10.862Z,99.62
2022-12-28T05:22:40.866Z,99.81
2022-12-28T05:25:08.775Z,100.00
2022-12-28T05:27:35.688Z,100.00
2022-12-28T05:30:02.922Z,100.00
2022-12-28T05:32:29.969Z,100.00
2022-12-28T05:34:57.182Z,100.00
2022-12-28T05:37:24.382Z,100.00
2022-12-28T05:39:51.718Z,100.00
2022-12-28T05:42:18.686Z,100.00
2022-12-28T05:44:45.972Z,100.00
2022-12-28T05:47:13.965Z,100.00
2022-12-28T05:49:41.140Z,100.00
2022-12-28T05:52:08.001Z,100.00
2022-12-28T05:54:35.247Z,100.00
2022-12-28T05:57:02.102Z,100.00
2022-12-28T05:59:29.343Z,100.00
2022-12-28T06:01:56.366Z,100.00
2022-12-28T06:04:23.788Z,100.00
2022-12-28T06:06:50.899Z,100.00
2022-12-28T06:09:18.159Z,100.00
2022-12-28T06:11:45.920Z,100.00
2022-12-28T06:14:13.271Z,100.00
2022-12-28T06:16:42.073Z,100.00
2022-12-28T06:19:11.826Z,100.00
2022-12-28T06:21:40.223Z,100.00
2022-12-28T06:24:08.305Z,100.00
2022-12-28T06:26:36.748Z,100.00
2022-12-28T06:29:04.493Z,100.00
2022-12-28T06:31:37.584Z,100.00
2022-12-28T06:34:06.899Z,100.00
2022-12-28T06:36:42.534Z,100.00
2022-12-28T06:39:12.909Z,100.00
2022-12-28T06:41:41.037Z,100.00
2022-12-28T06:44:09.937Z,100.00
2022-12-28T06:46:37.578Z,100.00
2022-12-28T06:49:05.135Z,100.00
2022-12-28T06:51:40.569Z,100.00
2022-12-28T06:54:09.625Z,100.00
2022-12-28T06:56:37.481Z,100.00
2022-12-28T06:59:05.524Z,100.00
2022-12-28T07:01:35.481Z,100.00
2022-12-28T07:04:06.642Z,100.00
2022-12-28T07:06:42.005Z,100.00
2022-12-28T07:09:13.828Z,100.00
2022-12-28T07:11:42.412Z,100.00
2022-12-28T07:14:09.746Z,100.00
2022-12-28T07:19:03.242Z,100.00
2022-12-28T07:21:36.310Z,100.00
2022-12-28T07:24:04.989Z,100.00
2022-12-28T07:26:34.414Z,100.00
2022-12-28T07:29:03.300Z,100.00
2022-12-28T07:31:40.029Z,100.00
2022-12-28T07:34:12.422Z,100.00
2022-12-28T07:36:39.484Z,100.00
2022-12-28T07:39:06.758Z,100.00
2022-12-28T07:41:34.618Z,100.00
2022-12-28T07:44:05.855Z,100.00
2022-12-28T07:46:34.988Z,100.00
2022-12-28T07:49:02.396Z,100.00
2022-12-28T07:51:35.340Z,99.73
2022-12-28T07:54:03.645Z,99.88
2022-12-28T07:59:01.775Z,99.82
2022-12-28T08:01:31.877Z,99.61
2022-12-28T08:04:01.623Z,99.22
2022-12-28T08:06:30.459Z,99.06
2022-12-28T08:09:02.128Z,99.22
2022-12-28T08:11:32.207Z,99.13
2022-12-28T08:14:00.252Z,98.90
2022-12-28T08:16:30.096Z,98.87
2022-12-28T08:18:57.760Z,98.69
2022-12-28T08:21:26.320Z,98.49
2022-12-28T08:23:53.857Z,98.37
2022-12-28T08:26:23.517Z,98.21
2022-12-28T08:28:53.923Z,97.86
2022-12-28T08:31:30.045Z,98.04
2022-12-28T08:33:59.057Z,97.78
2022-12-28T08:36:26.229Z,97.41
2022-12-28T08:38:53.805Z,97.11
2022-12-28T08:41:23.046Z,97.10
2022-12-28T08:43:52.823Z,97.18
2022-12-28T08:46:25.824Z,97.23
2022-12-28T08:48:54.761Z,96.89
2022-12-28T08:51:27.977Z,96.92
2022-12-28T08:53:55.154Z,96.81
2022-12-28T08:56:28.671Z,96.34
2022-12-28T08:58:56.962Z,95.59
2022-12-28T09:01:26.526Z,95.72
2022-12-28T09:03:56.957Z,95.04
2022-12-28T09:06:36.645Z,94.49
2022-12-28T09:09:06.518Z,93.79
2022-12-28T09:11:38.620Z,93.10
2022-12-28T09:14:09.428Z,92.32
2022-12-28T09:16:37.964Z,92.67
2022-12-28T09:19:07.446Z,90.93
2022-12-28T09:21:37.323Z,91.11
2022-12-28T09:24:05.570Z,90.80
2022-12-28T09:26:37.671Z,90.50
2022-12-28T09:29:08.685Z,88.91
2022-12-28T09:31:37.360Z,88.60
2022-12-28T09:36:53.252Z,88.66
2022-12-28T09:39:24.710Z,87.42
2022-12-28T09:41:55.116Z,87.49
2022-12-28T09:44:37.711Z,87.13
2022-12-28T09:47:26.344Z,86.78
2022-12-28T09:50:25.836Z,86.24
2022-12-28T09:52:59.183Z,86.17
2022-12-28T09:55:27.673Z,86.13
2022-12-28T09:57:57.581Z,85.95
2022-12-28T10:00:27.168Z,85.53
2022-12-28T10:03:09.968Z,85.32
2022-12-28T10:05:37.458Z,85.06
2022-12-28T10:08:04.852Z,84.95
2022-12-28T10:10:32.288Z,84.59
2022-12-28T10:13:37.118Z,83.09
2022-12-28T10:15:59.785Z,82.70
2022-12-28T10:18:28.289Z,82.95
2022-12-28T10:20:55.951Z,82.66
2022-12-28T10:23:30.107Z,82.63
2022-12-28T10:26:00.805Z,81.78
2022-12-28T10:28:37.925Z,81.34
2022-12-28T10:31:09.078Z,80.45
2022-12-28T10:33:40.910Z,80.37
2022-12-28T10:36:14.444Z,79.73
2022-12-28T10:38:54.310Z,78.82
2022-12-28T10:41:31.226Z,79.01
2022-12-28T10:44:37.489Z,79.16
2022-12-28T10:47:07.503Z,78.32
2022-12-28T10:49:37.211Z,78.91
2022-12-28T10:52:15.879Z,78.76
2022-12-28T10:54:43.515Z,78.24
2022-12-28T10:57:17.952Z,78.57
2022-12-28T10:59:46.929Z,78.45
2022-12-28T11:02:28.499Z,78.04
2022-12-28T11:05:01.842Z,77.92
2022-12-28T11:07:41.077Z,77.56
2022-12-28T11:10:34.750Z,78.19
2022-12-28T11:13:02.120Z,78.26
2022-12-28T11:15:32.246Z,77.94
2022-12-28T11:18:02.643Z,77.92
2022-12-28T11:20:38.081Z,78.26
2022-12-28T11:23:08.175Z,78.43
2022-12-28T11:25:37.220Z,77.95
2022-12-28T11:28:16.269Z,77.98
2022-12-28T11:30:44.422Z,78.20
2022-12-28T11:33:44.541Z,78.28
2022-12-28T11:36:20.930Z,78.45
2022-12-28T11:38:51.060Z,78.48
2022-12-28T11:41:27.534Z,78.79
2022-12-28T11:44:04.666Z,78.67
2022-12-28T11:46:31.694Z,78.53
2022-12-28T11:49:06.453Z,78.48
2022-12-28T11:51:35.777Z,77.96
2022-12-28T11:54:38.648Z,78.10
2022-12-28T11:57:08.085Z,78.50
2022-12-28T11:59:36.320Z,78.04
2022-12-28T12:02:29.595Z,77.48
2022-12-28T12:04:56.982Z,77.81
2022-12-28T12:07:31.795Z,78.00
2022-12-28T12:10:29.415Z,77.60
2022-12-28T12:12:57.025Z,77.85
2022-12-28T12:15:34.023Z,77.52
2022-12-28T12:18:05.034Z,77.40
2022-12-28T12:20:45.094Z,77.67
2022-12-28T12:23:25.907Z,77.51
2022-12-28T12:25:56.241Z,77.68
2022-12-28T12:28:38.027Z,77.61
2022-12-28T12:31:12.023Z,76.80
2022-12-28T12:33:46.213Z,77.19
2022-12-28T12:36:23.088Z,77.51
2022-12-28T12:39:08.655Z,75.98
2022-12-28T12:41:47.308Z,77.07
2022-12-28T12:44:18.862Z,77.51
2022-12-28T12:47:18.597Z,77.58
2022-12-28T12:49:52.517Z,77.74
2022-12-28T12:52:42.222Z,78.32
2022-12-28T12:55:33.140Z,78.12
2022-12-28T12:58:04.263Z,78.12
2022-12-28T13:00:48.399Z,78.35
2022-12-28T13:03:40.080Z,77.99
2022-12-28T13:06:08.458Z,78.09
2022-12-28T13:09:00.408Z,78.37
2022-12-28T13:11:31.486Z,78.51
2022-12-28T13:13:58.847Z,78.25
2022-12-28T13:16:29.748Z,78.46
2022-12-28T13:18:59.637Z,78.69
2022-12-28T13:21:29.633Z,78.69
2022-12-28T13:23:56.956Z,78.88
2022-12-28T13:26:29.735Z,78.53
2022-12-28T13:29:00.078Z,78.08
2022-12-28T13:31:41.045Z,78.66
2022-12-28T13:34:25.669Z,77.77
2022-12-28T13:36:54.420Z,78.38
2022-12-28T13:39:22.604Z,78.39
2022-12-28T13:42:12.808Z,78.20
2022-12-28T13:44:48.404Z,77.53
2022-12-28T13:47:38.228Z,77.04
2022-12-28T13:50:14.369Z,77.54
2022-12-28T13:52:57.155Z,78.26
2022-12-28T13:55:41.854Z,77.57
2022-12-28T13:58:20.164Z,77.93
2022-12-28T14:00:50.204Z,77.84
2022-12-28T14:03:19.273Z,78.22
2022-12-28T14:05:50.068Z,78.18
2022-12-28T14:08:18.105Z,78.65
2022-12-28T14:10:47.343Z,78.84
2022-12-28T14:13:15.008Z,79.15
2022-12-28T14:15:42.688Z,79.23
2022-12-28T14:18:14.986Z,79.57
2022-12-28T14:20:50.344Z,79.19
2022-12-28T14:23:24.703Z,79.16
2022-12-28T14:25:54.316Z,79.48
2022-12-28T14:28:39.659Z,79.67
2022-12-28T14:31:09.602Z,79.90
2022-12-28T14:33:49.657Z,79.95
2022-12-28T14:36:21.948Z,80.14
2022-12-28T14:38:52.929Z,80.12
2022-12-28T14:41:29.705Z,79.54
2022-12-28T14:44:02.401Z,79.41
2022-12-28T14:46:40.668Z,79.76
2022-12-28T14:49:26.655Z,79.79
2022-12-28T14:52:09.576Z,79.92
2022-12-28T14:54:53.455Z,80.20
2022-12-28T14:57:23.688Z,80.15
2022-12-28T15:00:00.640Z,80.17
2022-12-28T15:02:34.549Z,80.17
2022-12-28T15:05:03.154Z,80.09
2022-12-28T15:07:33.269Z,79.47
2022-12-28T15:10:00.454Z,79.71
2022-12-28T15:12:27.964Z,79.95
2022-12-28T15:14:55.009Z,79.85
2022-12-28T15:17:22.758Z,79.87
2022-12-28T15:19:51.588Z,79.67
2022-12-28T15:22:19.004Z,79.63
2022-12-28T15:24:46.503Z,79.82
2022-12-28T15:27:13.962Z,79.48
2022-12-28T15:30:05.135Z,79.39
2022-12-28T15:32:28.951Z,79.49
2022-12-28T15:34:56.034Z,79.52
2022-12-28T15:37:23.309Z,79.44
2022-12-28T15:39:50.180Z,79.46
2022-12-28T15:42:17.667Z,79.59
2022-12-28T15:44:46.267Z,79.92
2022-12-28T15:47:13.623Z,79.59
2022-12-28T15:49:40.525Z,79.84
2022-12-28T15:52:07.842Z,79.72
2022-12-28T15:54:35.051Z,79.78
2022-12-28T15:57:02.457Z,79.95
2022-12-28T15:59:29.512Z,79.84
2022-12-28T16:01:56.867Z,79.76
2022-12-28T16:04:23.978Z,79.47
2022-12-28T16:06:51.367Z,79.86
2022-12-28T16:09:18.780Z,79.79
2022-12-28T16:11:51.495Z,79.77
2022-12-28T16:14:21.743Z,79.79
2022-12-28T16:16:49.210Z,79.68
2022-12-28T16:19:16.665Z,79.85
2022-12-28T16:21:45.294Z,80.64
2022-12-28T16:24:12.319Z,80.68
2022-12-28T16:26:39.575Z,80.71
2022-12-28T16:29:06.721Z,80.63
2022-12-28T16:31:36.839Z,80.65
2022-12-28T16:34:06.968Z,80.57
2022-12-28T16:36:35.225Z,80.53
2022-12-28T16:39:05.590Z,79.49
2022-12-28T16:41:36.580Z,79.76
2022-12-28T16:44:15.578Z,79.67
2022-12-28T16:46:43.119Z,79.62
2022-12-28T16:49:13.501Z,79.70
2022-12-28T16:51:43.999Z,79.45
2022-12-28T16:54:19.814Z,79.01
2022-12-28T16:56:48.627Z,78.64
2022-12-28T16:59:21.713Z,78.48
2022-12-28T17:01:49.293Z,78.90
2022-12-28T17:04:16.454Z,78.68
2022-12-28T17:06:46.500Z,79.14
2022-12-28T17:09:15.055Z,78.98
2022-12-28T17:11:42.617Z,78.91
2022-12-28T17:14:13.069Z,78.79
2022-12-28T17:16:40.786Z,78.34
2022-12-28T17:19:08.403Z,78.51
2022-12-28T17:21:36.054Z,78.53
2022-12-28T17:24:03.626Z,78.77
2022-12-28T17:26:31.305Z,78.32
2022-12-28T17:28:59.046Z,77.37
2022-12-28T17:31:26.450Z,77.40
2022-12-28T17:33:56.051Z,77.60
2022-12-28T17:36:23.749Z,77.10
2022-12-28T17:38:51.045Z,76.98
2022-12-28T17:41:22.644Z,76.90
2022-12-28T17:43:52.419Z,77.15
2022-12-28T17:46:20.713Z,76.93
2022-12-28T17:48:51.352Z,77.09
2022-12-28T17:51:19.189Z,76.12
2022-12-28T17:53:46.378Z,76.15
2022-12-28T17:56:14.818Z,76.51
2022-12-28T17:58:43.318Z,76.32
2022-12-28T18:01:12.239Z,75.72
2022-12-28T18:03:39.694Z,76.02
2022-12-28T18:06:07.485Z,75.37
2022-12-28T18:08:34.846Z,75.68
2022-12-28T18:11:02.973Z,76.00
2022-12-28T18:13:30.344Z,75.43
2022-12-28T18:15:57.671Z,75.84
2022-12-28T18:18:24.702Z,75.73
2022-12-28T18:20:57.044Z,75.26
2022-12-28T18:23:24.152Z,75.60
2022-12-28T18:26:17.304Z,75.08
2022-12-28T18:28:44.560Z,75.53
2022-12-28T18:31:11.454Z,75.85
2022-12-28T18:33:38.871Z,75.56
2022-12-28T18:36:11.390Z,75.82
2022-12-28T18:38:43.209Z,76.40
2022-12-28T18:41:16.839Z,76.51
2022-12-28T18:43:44.323Z,76.12
2022-12-28T18:46:11.708Z,75.75
2022-12-28T18:48:41.068Z,76.49
2022-12-28T18:51:10.746Z,76.41
2022-12-28T18:53:38.995Z,76.39
2022-12-28T18:56:11.595Z,76.50
2022-12-28T18:58:40.660Z,75.66
2022-12-28T19:01:39.806Z,76.35
2022-12-28T19:04:02.720Z,76.03
2022-12-28T19:06:30.359Z,76.02
2022-12-28T19:09:01.466Z,76.41
2022-12-28T19:11:29.499Z,76.05
2022-12-28T19:13:57.214Z,76.17
2022-12-28T19:16:30.523Z,76.60
2022-12-28T19:19:01.067Z,76.16
2022-12-28T19:21:33.955Z,76.26
2022-12-28T19:24:05.130Z,76.58
2022-12-28T19:26:33.659Z,76.90
2022-12-28T19:29:01.257Z,76.78
2022-12-28T19:31:28.409Z,77.04
2022-12-28T19:33:56.199Z,76.68
2022-12-28T19:36:23.371Z,76.02
2022-12-28T19:38:53.511Z,75.87
2022-12-28T19:41:21.262Z,75.55
2022-12-28T19:43:48.453Z,75.81
2022-12-28T19:46:21.182Z,75.59
2022-12-28T19:48:48.743Z,75.62
2022-12-28T19:51:15.693Z,75.77
2022-12-28T19:53:42.972Z,76.01
2022-12-28T19:56:16.403Z,76.22
2022-12-28T19:58:45.124Z,76.09
2022-12-28T20:01:18.903Z,75.59
2022-12-28T20:03:46.907Z,75.92
2022-12-28T20:06:29.018Z,76.14
2022-12-28T20:09:02.053Z,76.37
2022-12-28T20:14:35.832Z,75.45
2022-12-28T20:17:02.749Z,75.87
2022-12-28T20:19:30.005Z,76.05
2022-12-28T20:21:56.906Z,76.35
2022-12-28T20:24:24.217Z,76.54
2022-12-28T20:26:53.967Z,76.32
2022-12-28T20:29:25.542Z,76.73
2022-12-28T20:31:53.096Z,77.04
2022-12-28T20:34:20.480Z,77.11
2022-12-28T20:36:47.497Z,76.54
2022-12-28T20:39:14.784Z,76.61
2022-12-28T20:42:00.190Z,76.95
2022-12-28T20:44:32.501Z,77.59
2022-12-28T20:47:00.612Z,77.76
2022-12-28T20:49:28.793Z,78.12
2022-12-28T20:51:56.318Z,78.17
2022-12-28T20:54:23.992Z,77.98
2022-12-28T20:56:55.257Z,78.18
2022-12-28T20:59:25.152Z,77.51
2022-12-28T21:01:52.824Z,77.71
2022-12-28T21:04:20.357Z,77.72
2022-12-28T21:06:47.451Z,77.39
2022-12-28T21:09:14.689Z,77.82
2022-12-28T21:11:41.577Z,77.70
2022-12-28T21:14:08.838Z,77.95
2022-12-28T21:16:35.922Z,78.10
2022-12-28T21:19:03.509Z,78.44
2022-12-28T21:21:30.405Z,78.45
2022-12-28T21:23:57.584Z,77.87
2022-12-28T21:26:25.909Z,77.90
2022-12-28T21:28:53.378Z,77.85
2022-12-28T21:31:20.434Z,77.84
2022-12-28T21:33:47.921Z,78.26
2022-12-28T21:36:16.084Z,78.76
2022-12-28T21:38:44.475Z,78.39
2022-12-28T21:41:37.705Z,77.23
2022-12-28T21:44:11.816Z,77.61
2022-12-28T21:46:39.309Z,78.16
2022-12-28T21:49:07.831Z,77.76
2022-12-28T21:51:35.487Z,77.74
2022-12-28T21:54:06.062Z,77.76
2022-12-28T21:56:35.127Z,77.57
2022-12-28T21:59:03.704Z,77.92
2022-12-28T22:01:49.308Z,78.08
2022-12-28T22:04:40.451Z,77.61
2022-12-28T22:07:09.547Z,77.86
2022-12-28T22:09:55.474Z,78.00
2022-12-28T22:12:37.318Z,77.79
2022-12-28T22:15:33.643Z,78.20
2022-12-28T22:18:52.733Z,78.46
2022-12-28T22:21:12.311Z,78.53
2022-12-28T22:23:39.552Z,78.43
2022-12-28T22:26:07.129Z,78.07
2022-12-28T22:28:34.027Z,77.59
2022-12-28T22:31:08.169Z,77.62
2022-12-28T22:33:35.320Z,77.38
2022-12-28T22:36:14.415Z,77.61
2022-12-28T22:38:41.629Z,77.35
2022-12-28T22:41:09.262Z,78.06
2022-12-28T22:43:36.934Z,77.86
2022-12-28T22:46:11.949Z,77.25
2022-12-28T22:48:39.059Z,77.34
2022-12-28T22:51:09.706Z,77.37
2022-12-28T22:53:37.532Z,76.72
2022-12-28T22:56:11.785Z,76.70
2022-12-28T22:58:38.738Z,77.51
2022-12-28T23:01:07.439Z,77.83
2022-12-28T23:03:38.541Z,78.29
2022-12-28T23:06:07.036Z,78.33
2022-12-28T23:08:34.468Z,77.59
2022-12-28T23:11:04.725Z,77.95
2022-12-28T23:13:34.828Z,78.16
2022-12-28T23:16:05.056Z,78.39
2022-12-28T23:18:53.064Z,78.50
2022-12-28T23:21:41.490Z,78.36
2022-12-28T23:24:31.833Z,78.25
2022-12-28T23:27:18.682Z,78.49
2022-12-28T23:29:46.436Z,78.48
2022-12-28T23:32:14.271Z,78.45
2022-12-28T23:34:41.222Z,78.69
2022-12-28T23:37:08.381Z,78.63
2022-12-28T23:39:35.355Z,77.98
2022-12-28T23:42:02.565Z,78.09
2022-12-28T23:44:29.626Z,78.20
2022-12-28T23:46:59.285Z,78.46
2022-12-28T23:49:27.408Z,77.92
2022-12-28T23:51:54.943Z,77.82
2022-12-28T23:54:22.329Z,77.90
2022-12-28T23:56:49.621Z,77.87
2022-12-28T23:59:16.593Z,77.78
